createdAt,value
2018-06-25T00:01:58.137Z,14.11
2018-06-25T00:04:27.290Z,14.15
2018-06-25T00:06:56.472Z,14.15
2018-06-25T00:09:25.865Z,14.16
2018-06-25T00:11:54.993Z,14.16
2018-06-25T00:14:24.176Z,14.15
2018-06-25T00:16:53.326Z,14.14
2018-06-25T00:19:22.559Z,14.12
2018-06-25T00:21:51.775Z,14.09
2018-06-25T00:24:20.918Z,14.03
2018-06-25T00:26:50.201Z,13.99
2018-06-25T00:29:19.361Z,13.94
2018-06-25T00:31:48.533Z,13.92
2018-06-25T00:34:17.728Z,13.90
2018-06-25T00:36:46.928Z,13.85
2018-06-25T00:39:16.014Z,13.76
2018-06-25T00:41:45.110Z,13.68
2018-06-25T00:44:14.284Z,13.57
2018-06-25T00:46:43.389Z,13.43
2018-06-25T00:49:12.509Z,13.38
2018-06-25T00:51:41.644Z,13.34
2018-06-25T00:54:10.786Z,13.35
2018-06-25T00:56:39.936Z,13.40
2018-06-25T00:59:26.395Z,13.47
2018-06-25T01:01:55.569Z,13.56
2018-06-25T01:04:24.701Z,13.59
2018-06-25T01:06:53.891Z,13.64
2018-06-25T01:09:23.042Z,13.68
2018-06-25T01:11:52.698Z,13.73
2018-06-25T01:14:21.847Z,13.77
2018-06-25T01:16:51.556Z,13.81
2018-06-25T01:19:20.713Z,13.81
2018-06-25T01:21:49.861Z,13.81
2018-06-25T01:24:19.041Z,13.81
2018-06-25T01:26:48.166Z,13.81
2018-06-25T01:29:17.362Z,13.82
2018-06-25T01:31:46.496Z,13.84
2018-06-25T01:34:15.605Z,13.83
2018-06-25T01:36:44.802Z,13.86
2018-06-25T01:39:13.990Z,13.86
2018-06-25T01:41:43.203Z,13.86
2018-06-25T01:44:12.482Z,13.84
2018-06-25T01:46:41.678Z,13.85
2018-06-25T01:49:10.781Z,13.86
2018-06-25T01:51:40.014Z,13.89
2018-06-25T01:54:09.181Z,13.91
2018-06-25T01:56:38.371Z,13.94
2018-06-25T01:59:07.568Z,13.95
2018-06-25T02:01:37.142Z,13.95
2018-06-25T02:04:06.270Z,13.95
2018-06-25T02:06:35.639Z,13.94
2018-06-25T02:09:08.005Z,13.93
2018-06-25T02:11:37.080Z,13.91
2018-06-25T02:14:06.225Z,13.89
2018-06-25T02:16:35.526Z,13.87
2018-06-25T02:19:04.848Z,13.85
2018-06-25T02:21:33.995Z,13.83
2018-06-25T02:24:03.160Z,13.82
2018-06-25T02:26:32.304Z,13.81
2018-06-25T02:29:01.434Z,13.81
2018-06-25T02:31:30.585Z,13.81
2018-06-25T02:33:59.736Z,13.81
2018-06-25T02:36:28.853Z,13.84
2018-06-25T02:38:58.103Z,13.84
2018-06-25T02:41:27.317Z,13.83
2018-06-25T02:43:56.515Z,13.83
2018-06-25T02:46:25.635Z,13.83
2018-06-25T02:48:54.923Z,13.84
2018-06-25T02:51:24.072Z,13.86
2018-06-25T02:53:53.212Z,13.83
2018-06-25T02:56:22.416Z,13.81
2018-06-25T02:58:51.633Z,13.82
2018-06-25T03:01:20.797Z,13.80
2018-06-25T03:03:50.010Z,13.80
2018-06-25T03:06:19.154Z,13.79
2018-06-25T03:08:48.321Z,13.79
2018-06-25T03:11:17.467Z,13.79
2018-06-25T03:13:46.694Z,13.79
2018-06-25T03:16:15.915Z,13.79
2018-06-25T03:18:45.275Z,13.80
2018-06-25T03:21:14.462Z,13.81
2018-06-25T03:23:43.590Z,13.81
2018-06-25T03:26:12.745Z,13.82
2018-06-25T03:28:42.080Z,13.84
2018-06-25T03:31:11.287Z,13.86
2018-06-25T03:33:40.449Z,13.84
2018-06-25T03:36:09.595Z,13.82
2018-06-25T03:38:38.721Z,13.82
2018-06-25T03:41:07.866Z,13.81
2018-06-25T03:43:37.089Z,13.79
2018-06-25T03:46:06.304Z,13.76
2018-06-25T03:48:35.421Z,13.73
2018-06-25T03:51:04.566Z,13.73
2018-06-25T03:53:33.841Z,13.72
2018-06-25T03:56:03.022Z,13.73
2018-06-25T03:58:32.177Z,13.75
2018-06-25T04:01:01.342Z,13.75
2018-06-25T04:03:30.505Z,13.76
2018-06-25T04:05:59.726Z,13.79
2018-06-25T04:08:28.925Z,13.83
2018-06-25T04:10:58.039Z,13.88
2018-06-25T04:13:27.168Z,13.95
2018-06-25T04:15:56.355Z,14.02
2018-06-25T04:18:25.502Z,14.10
2018-06-25T04:20:54.624Z,14.18
2018-06-25T04:23:23.736Z,14.24
2018-06-25T04:25:52.906Z,14.30
2018-06-25T04:28:22.047Z,14.37
2018-06-25T04:30:51.233Z,14.44
2018-06-25T04:33:20.495Z,14.49
2018-06-25T04:35:49.701Z,14.58
2018-06-25T04:38:18.860Z,14.65
2018-06-25T04:40:48.034Z,14.71
2018-06-25T04:43:17.237Z,14.72
2018-06-25T04:45:47.379Z,14.77
2018-06-25T04:48:16.522Z,14.81
2018-06-25T04:50:45.696Z,14.88
2018-06-25T04:53:14.835Z,14.98
2018-06-25T04:55:44.139Z,15.06
2018-06-25T04:58:13.311Z,15.14
2018-06-25T05:00:42.433Z,15.22
2018-06-25T05:03:11.608Z,15.36
2018-06-25T05:05:40.827Z,15.51
2018-06-25T05:08:10.913Z,15.71
2018-06-25T05:10:40.064Z,15.78
2018-06-25T05:13:09.385Z,15.81
2018-06-25T05:15:38.592Z,15.82
2018-06-25T05:18:07.775Z,15.81
2018-06-25T05:20:37.634Z,15.79
2018-06-25T05:23:07.034Z,15.83
2018-06-25T05:25:36.253Z,15.90
2018-06-25T05:28:05.569Z,15.94
2018-06-25T05:30:34.702Z,15.95
2018-06-25T05:33:03.869Z,15.97
2018-06-25T05:35:33.586Z,16.00
2018-06-25T05:38:02.845Z,15.99
2018-06-25T05:40:35.084Z,16.03
2018-06-25T05:43:04.327Z,16.07
2018-06-25T05:45:35.299Z,16.15
2018-06-25T05:48:04.475Z,16.22
2018-06-25T05:50:33.740Z,16.31
2018-06-25T05:53:02.945Z,16.35
2018-06-25T05:55:32.088Z,16.40
2018-06-25T05:58:01.333Z,16.49
2018-06-25T06:00:30.526Z,16.57
2018-06-25T06:02:59.751Z,16.56
2018-06-25T06:05:28.923Z,16.54
2018-06-25T06:07:58.093Z,16.53
2018-06-25T06:10:27.270Z,16.56
2018-06-25T06:12:56.575Z,16.52
2018-06-25T06:15:25.959Z,16.56
2018-06-25T06:17:55.737Z,16.66
2018-06-25T06:20:25.097Z,16.74
2018-06-25T06:22:54.299Z,16.81
2018-06-25T06:25:23.519Z,16.82
2018-06-25T06:27:52.844Z,16.78
2018-06-25T06:30:22.152Z,16.70
2018-06-25T06:32:51.546Z,16.62
2018-06-25T06:35:20.750Z,16.56
2018-06-25T06:37:50.210Z,16.57
2018-06-25T06:40:19.186Z,16.58
2018-06-25T06:42:48.394Z,16.55
2018-06-25T06:45:17.678Z,16.47
2018-06-25T06:47:47.108Z,16.46
2018-06-25T06:50:16.341Z,16.41
2018-06-25T06:52:45.505Z,16.37
2018-06-25T06:55:15.420Z,16.34
2018-06-25T06:57:44.598Z,16.29
2018-06-25T07:00:13.849Z,16.23
2018-06-25T07:02:43.154Z,16.15
2018-06-25T07:05:12.378Z,16.10
2018-06-25T07:07:41.826Z,16.07
2018-06-25T07:10:11.204Z,16.08
2018-06-25T07:12:40.514Z,16.04
2018-06-25T07:15:09.742Z,15.97
2018-06-25T07:17:39.374Z,15.96
2018-06-25T07:20:08.662Z,15.99
2018-06-25T07:22:37.975Z,16.02
2018-06-25T07:25:07.342Z,16.09
2018-06-25T07:27:36.757Z,16.07
2018-06-25T07:30:07.143Z,16.00
2018-06-25T07:32:36.392Z,15.91
2018-06-25T07:35:05.867Z,15.82
2018-06-25T07:37:35.069Z,15.76
2018-06-25T07:40:04.286Z,15.81
2018-06-25T07:42:33.610Z,15.96
2018-06-25T07:45:02.718Z,16.04
2018-06-25T07:47:31.896Z,16.14
2018-06-25T07:50:01.069Z,16.25
2018-06-25T07:52:30.221Z,16.33
2018-06-25T07:54:59.394Z,16.41
2018-06-25T07:57:28.627Z,16.52
2018-06-25T07:59:57.784Z,16.47
2018-06-25T08:02:26.978Z,16.42
2018-06-25T08:04:56.272Z,16.43
2018-06-25T08:07:25.550Z,16.48
2018-06-25T08:09:54.720Z,16.49
2018-06-25T08:12:24.005Z,16.47
2018-06-25T08:14:53.258Z,16.52
2018-06-25T08:17:22.452Z,16.55
2018-06-25T08:19:51.640Z,16.58
2018-06-25T08:22:20.825Z,16.68
2018-06-25T08:24:49.972Z,16.84
2018-06-25T08:27:19.194Z,16.99
2018-06-25T08:29:48.444Z,17.13
2018-06-25T08:32:17.669Z,17.22
2018-06-25T08:34:46.819Z,17.25
2018-06-25T08:37:16.054Z,17.24
2018-06-25T08:39:45.317Z,17.38
2018-06-25T08:42:14.548Z,17.67
2018-06-25T08:44:43.693Z,17.95
2018-06-25T08:47:12.924Z,18.15
2018-06-25T08:49:42.096Z,18.32
2018-06-25T08:52:11.218Z,18.73
2018-06-25T08:54:40.439Z,19.34
2018-06-25T08:57:09.673Z,19.55
2018-06-25T08:59:38.850Z,19.58
2018-06-25T09:02:08.049Z,19.87
2018-06-25T09:04:37.698Z,20.32
2018-06-25T09:07:06.898Z,20.61
2018-06-25T09:09:36.121Z,20.70
2018-06-25T09:12:05.243Z,20.78
2018-06-25T09:14:34.403Z,20.99
2018-06-25T09:17:03.603Z,21.25
2018-06-25T09:19:32.920Z,21.72
2018-06-25T09:22:02.166Z,22.45
2018-06-25T09:24:31.498Z,22.82
2018-06-25T09:27:00.748Z,22.86
2018-06-25T09:29:30.018Z,22.68
2018-06-25T09:31:59.298Z,22.49
2018-06-25T09:34:33.763Z,22.87
2018-06-25T09:37:03.086Z,23.30
2018-06-25T09:39:32.631Z,23.36
2018-06-25T09:42:01.970Z,23.17
2018-06-25T09:44:31.337Z,23.08
2018-06-25T09:47:00.588Z,22.96
2018-06-25T09:49:29.874Z,22.84
2018-06-25T09:52:00.348Z,22.69
2018-06-25T09:54:29.929Z,22.74
2018-06-25T09:56:59.303Z,22.94
2018-06-25T09:59:28.600Z,23.13
2018-06-25T10:01:57.846Z,23.27
2018-06-25T10:04:27.206Z,23.43
2018-06-25T10:06:56.465Z,23.90
2018-06-25T10:09:25.708Z,25.08
2018-06-25T10:11:54.996Z,26.00
2018-06-25T10:14:24.302Z,26.59
2018-06-25T10:16:54.118Z,26.95
2018-06-25T10:19:23.422Z,27.11
2018-06-25T10:21:52.950Z,27.39
2018-06-25T10:24:22.335Z,27.57
2018-06-25T10:26:51.695Z,27.62
2018-06-25T10:29:20.978Z,27.41
2018-06-25T10:31:50.168Z,27.07
2018-06-25T10:34:19.349Z,26.90
2018-06-25T10:36:48.633Z,26.50
2018-06-25T10:39:17.924Z,26.30
2018-06-25T10:41:47.325Z,26.45
2018-06-25T10:44:17.010Z,26.45
2018-06-25T10:46:46.987Z,26.30
2018-06-25T10:49:16.136Z,26.04
2018-06-25T10:51:45.341Z,26.22
2018-06-25T10:54:14.547Z,26.84
2018-06-25T10:56:48.012Z,27.35
2018-06-25T10:59:17.034Z,27.67
2018-06-25T11:01:46.242Z,27.86
2018-06-25T11:04:15.529Z,27.76
2018-06-25T11:06:44.797Z,27.62
2018-06-25T11:09:14.482Z,27.35
2018-06-25T11:11:44.093Z,27.16
2018-06-25T11:14:13.482Z,27.23
2018-06-25T11:16:42.742Z,27.30
2018-06-25T11:19:11.903Z,27.40
2018-06-25T11:21:41.175Z,27.38
2018-06-25T11:24:10.559Z,27.29
2018-06-25T11:26:39.856Z,26.89
2018-06-25T11:29:09.180Z,26.69
2018-06-25T11:31:38.479Z,26.44
2018-06-25T11:34:07.722Z,26.00
2018-06-25T11:36:36.938Z,25.71
2018-06-25T11:39:10.076Z,25.62
2018-06-25T11:41:41.035Z,25.48
2018-06-25T11:44:10.165Z,25.45
2018-06-25T11:46:39.322Z,25.44
2018-06-25T11:49:08.501Z,25.39
2018-06-25T11:51:37.986Z,25.29
2018-06-25T11:54:07.897Z,25.24
2018-06-25T11:56:37.304Z,25.17
2018-06-25T11:59:06.712Z,25.08
2018-06-25T12:01:36.189Z,25.13
2018-06-25T12:04:05.405Z,25.10
2018-06-25T12:06:34.523Z,25.11
2018-06-25T12:09:04.105Z,25.13
2018-06-25T12:11:33.314Z,25.19
2018-06-25T12:14:02.813Z,25.21
2018-06-25T12:16:31.957Z,25.26
2018-06-25T12:19:01.424Z,25.38
2018-06-25T12:21:30.597Z,25.43
2018-06-25T12:24:00.002Z,25.55
2018-06-25T12:26:29.305Z,25.65
2018-06-25T12:28:58.467Z,25.66
2018-06-25T12:31:27.861Z,25.69
2018-06-25T12:33:57.030Z,25.69
2018-06-25T12:36:26.197Z,25.80
2018-06-25T12:38:55.414Z,25.84
2018-06-25T12:41:24.739Z,25.80
2018-06-25T12:43:53.893Z,25.72
2018-06-25T12:46:41.358Z,25.54
2018-06-25T12:49:10.515Z,25.38
2018-06-25T12:51:39.662Z,25.21
2018-06-25T12:54:08.869Z,25.09
2018-06-25T12:56:38.078Z,24.97
2018-06-25T12:59:07.403Z,24.92
2018-06-25T13:01:36.548Z,25.04
2018-06-25T13:04:05.763Z,25.13
2018-06-25T13:06:35.047Z,25.22
2018-06-25T13:09:06.207Z,25.21
2018-06-25T13:11:35.540Z,25.23
2018-06-25T13:14:04.777Z,25.18
2018-06-25T13:16:34.166Z,25.12
2018-06-25T13:19:03.567Z,25.19
2018-06-25T13:21:32.745Z,25.24
2018-06-25T13:24:02.086Z,25.10
2018-06-25T13:26:31.354Z,24.94
2018-06-25T13:29:00.542Z,24.77
2018-06-25T13:31:29.938Z,24.73
2018-06-25T13:33:59.093Z,24.76
2018-06-25T13:36:28.447Z,24.79
2018-06-25T13:38:57.789Z,24.84
2018-06-25T13:41:27.103Z,24.99
2018-06-25T13:43:56.377Z,25.17
2018-06-25T13:46:25.711Z,25.33
2018-06-25T13:48:55.091Z,25.40
2018-06-25T13:51:24.293Z,25.44
2018-06-25T13:53:53.618Z,25.38
2018-06-25T13:56:22.980Z,25.42
2018-06-25T13:58:52.231Z,25.40
2018-06-25T14:01:21.782Z,25.34
2018-06-25T14:03:51.013Z,25.25
2018-06-25T14:06:20.279Z,25.19
2018-06-25T14:08:49.476Z,25.05
2018-06-25T14:11:18.707Z,24.97
2018-06-25T14:13:48.015Z,24.91
2018-06-25T14:16:17.394Z,24.82
2018-06-25T14:18:46.712Z,24.79
2018-06-25T14:21:15.931Z,24.71
2018-06-25T14:23:50.966Z,24.68
2018-06-25T14:26:20.286Z,24.70
2018-06-25T14:28:49.545Z,24.71
2018-06-25T14:31:22.903Z,24.70
2018-06-25T14:33:57.568Z,24.82
2018-06-25T14:36:27.012Z,24.99
2018-06-25T14:38:56.330Z,25.19
2018-06-25T14:41:25.823Z,25.40
2018-06-25T14:43:55.040Z,25.59
2018-06-25T14:46:24.344Z,25.78
2018-06-25T14:48:53.630Z,25.92
2018-06-25T14:51:23.797Z,25.87
2018-06-25T14:53:53.272Z,25.81
2018-06-25T14:56:22.752Z,25.66
2018-06-25T14:58:51.956Z,25.39
2018-06-25T15:01:21.254Z,25.15
2018-06-25T15:03:50.409Z,25.01
2018-06-25T15:06:19.626Z,24.84
2018-06-25T15:08:48.797Z,24.55
2018-06-25T15:11:18.125Z,24.21
2018-06-25T15:13:47.383Z,23.93
2018-06-25T15:16:16.626Z,23.69
2018-06-25T15:18:45.833Z,23.46
2018-06-25T15:21:14.983Z,23.34
2018-06-25T15:23:44.244Z,23.25
2018-06-25T15:26:13.434Z,23.12
2018-06-25T15:28:42.591Z,23.02
2018-06-25T15:31:11.721Z,22.93
2018-06-25T15:33:40.878Z,22.82
2018-06-25T15:36:10.054Z,22.75
2018-06-25T15:38:39.304Z,22.72
2018-06-25T15:41:08.451Z,22.67
2018-06-25T15:43:37.758Z,22.65
2018-06-25T15:46:07.043Z,22.65
2018-06-25T15:48:36.235Z,22.75
2018-06-25T15:51:05.457Z,22.87
2018-06-25T15:53:34.692Z,22.94
2018-06-25T15:56:03.912Z,22.97
2018-06-25T15:58:33.041Z,22.94
2018-06-25T16:01:02.249Z,22.88
2018-06-25T16:03:31.505Z,22.88
2018-06-25T16:06:00.800Z,22.86
2018-06-25T16:08:30.047Z,22.77
2018-06-25T16:10:59.535Z,22.63
2018-06-25T16:13:28.725Z,22.50
2018-06-25T16:15:57.983Z,22.41
2018-06-25T16:18:27.320Z,22.32
2018-06-25T16:20:56.584Z,22.27
2018-06-25T16:23:25.910Z,22.27
2018-06-25T16:25:55.190Z,22.25
2018-06-25T16:28:24.383Z,22.18
2018-06-25T16:30:53.577Z,22.09
2018-06-25T16:33:22.742Z,22.02
2018-06-25T16:35:52.234Z,21.99
2018-06-25T16:38:21.602Z,21.97
2018-06-25T16:40:50.857Z,21.88
2018-06-25T16:43:20.469Z,21.76
2018-06-25T16:45:49.693Z,21.65
2018-06-25T16:48:18.871Z,21.59
2018-06-25T16:50:48.138Z,21.52
2018-06-25T16:53:17.308Z,21.42
2018-06-25T16:55:46.683Z,21.31
2018-06-25T16:58:15.930Z,21.21
2018-06-25T17:00:45.108Z,21.09
2018-06-25T17:03:14.459Z,21.00
2018-06-25T17:05:43.790Z,20.91
2018-06-25T17:08:13.016Z,20.80
2018-06-25T17:10:42.358Z,20.74
2018-06-25T17:13:11.465Z,20.70
2018-06-25T17:15:40.702Z,20.66
2018-06-25T17:18:09.898Z,20.62
2018-06-25T17:20:39.165Z,20.57
2018-06-25T17:23:08.502Z,20.54
2018-06-25T17:25:37.775Z,20.47
2018-06-25T17:28:07.041Z,20.42
2018-06-25T17:30:36.218Z,20.37
2018-06-25T17:33:05.982Z,20.36
2018-06-25T17:35:35.193Z,20.36
2018-06-25T17:38:04.414Z,20.39
2018-06-25T17:40:33.353Z,20.41
2018-06-25T17:43:02.479Z,20.35
2018-06-25T17:45:31.624Z,20.28
2018-06-25T17:48:00.845Z,20.18
2018-06-25T17:50:30.071Z,20.09
2018-06-25T17:52:59.258Z,20.01
2018-06-25T17:55:28.426Z,19.94
2018-06-25T17:57:57.858Z,19.83
2018-06-25T18:00:27.028Z,19.73
2018-06-25T18:02:56.223Z,19.61
2018-06-25T18:05:25.399Z,19.50
2018-06-25T18:07:54.542Z,19.40
2018-06-25T18:10:23.676Z,19.29
2018-06-25T18:12:52.826Z,19.20
2018-06-25T18:15:21.993Z,19.11
2018-06-25T18:17:51.137Z,19.02
2018-06-25T18:20:20.282Z,18.94
2018-06-25T18:22:49.413Z,18.88
2018-06-25T18:25:18.561Z,18.82
2018-06-25T18:27:47.686Z,18.73
2018-06-25T18:30:16.840Z,18.65
2018-06-25T18:32:45.997Z,18.60
2018-06-25T18:35:15.190Z,18.55
2018-06-25T18:37:44.350Z,18.50
2018-06-25T18:40:13.469Z,18.48
2018-06-25T18:42:44.659Z,18.43
2018-06-25T18:45:13.870Z,18.37
2018-06-25T18:47:42.999Z,18.29
2018-06-25T18:50:12.152Z,18.21
2018-06-25T18:52:41.320Z,18.15
2018-06-25T18:55:10.515Z,18.09
2018-06-25T18:57:39.616Z,18.02
2018-06-25T19:00:10.236Z,17.95
2018-06-25T19:02:39.472Z,17.91
2018-06-25T19:05:08.933Z,17.85
2018-06-25T19:07:38.109Z,17.78
2018-06-25T19:10:07.241Z,17.72
2018-06-25T19:12:36.368Z,17.63
2018-06-25T19:15:06.168Z,17.55
2018-06-25T19:17:35.330Z,17.50
2018-06-25T19:20:04.977Z,17.43
2018-06-25T19:22:34.154Z,17.35
2018-06-25T19:25:03.446Z,17.28
2018-06-25T19:27:32.571Z,17.23
2018-06-25T19:30:01.816Z,17.19
2018-06-25T19:32:31.275Z,17.13
2018-06-25T19:35:00.441Z,17.08
2018-06-25T19:37:29.606Z,17.07
2018-06-25T19:39:58.556Z,17.04
2018-06-25T19:42:27.757Z,17.00
2018-06-25T19:44:56.917Z,16.96
2018-06-25T19:47:26.134Z,16.91
2018-06-25T19:49:55.408Z,16.86
2018-06-25T19:52:24.589Z,16.82
2018-06-25T19:54:53.724Z,16.81
2018-06-25T19:57:22.926Z,16.80
2018-06-25T19:59:52.091Z,16.80
2018-06-25T20:02:21.536Z,16.80
2018-06-25T20:04:50.819Z,16.82
2018-06-25T20:07:20.067Z,16.81
2018-06-25T20:09:49.484Z,16.77
2018-06-25T20:12:18.959Z,16.73
2018-06-25T20:14:48.435Z,16.67
2018-06-25T20:17:17.714Z,16.62
2018-06-25T20:19:46.950Z,16.57
2018-06-25T20:22:16.250Z,16.54
2018-06-25T20:24:45.706Z,16.51
2018-06-25T20:27:15.147Z,16.47
2018-06-25T20:29:44.343Z,16.40
2018-06-25T20:32:13.607Z,16.35
2018-06-25T20:34:42.874Z,16.31
2018-06-25T20:37:12.152Z,16.25
2018-06-25T20:39:41.487Z,16.19
2018-06-25T20:42:10.687Z,16.14
2018-06-25T20:44:39.879Z,16.11
2018-06-25T20:47:09.068Z,16.08
2018-06-25T20:49:38.248Z,16.08
2018-06-25T20:52:07.529Z,16.05
2018-06-25T20:54:36.780Z,16.01
2018-06-25T20:57:06.042Z,15.97
2018-06-25T20:59:35.219Z,15.95
2018-06-25T21:02:04.479Z,15.93
2018-06-25T21:04:34.349Z,15.91
2018-06-25T21:07:03.563Z,15.89
2018-06-25T21:09:32.752Z,15.86
2018-06-25T21:12:01.934Z,15.83
2018-06-25T21:14:31.045Z,15.79
2018-06-25T21:17:00.207Z,15.78
2018-06-25T21:19:30.173Z,15.77
2018-06-25T21:21:59.325Z,15.76
2018-06-25T21:24:28.531Z,15.76
2018-06-25T21:26:57.719Z,15.75
2018-06-25T21:29:26.943Z,15.74
2018-06-25T21:31:56.123Z,15.74
2018-06-25T21:34:25.272Z,15.75
2018-06-25T21:36:54.746Z,15.69
2018-06-25T21:39:23.949Z,15.66
2018-06-25T21:41:53.119Z,15.64
2018-06-25T21:44:22.340Z,15.59
2018-06-25T21:46:51.656Z,15.54
2018-06-25T21:49:20.785Z,15.50
2018-06-25T21:51:49.941Z,15.47
2018-06-25T21:54:19.068Z,15.46
2018-06-25T21:56:48.216Z,15.42
2018-06-25T21:59:17.481Z,15.36
2018-06-25T22:01:52.875Z,15.31
2018-06-25T22:04:22.596Z,15.30
2018-06-25T22:06:52.031Z,15.27
2018-06-25T22:09:22.717Z,15.26
2018-06-25T22:11:53.731Z,15.24
2018-06-25T22:14:25.518Z,15.20
2018-06-25T22:16:55.767Z,15.18
2018-06-25T22:19:26.400Z,15.14
2018-06-25T22:21:55.720Z,15.11
2018-06-25T22:24:26.188Z,15.11
2018-06-25T22:26:57.451Z,15.10
2018-06-25T22:29:29.209Z,15.08
2018-06-25T22:32:02.996Z,15.07
2018-06-25T22:34:32.242Z,15.06
2018-06-25T22:37:03.632Z,15.04
2018-06-25T22:39:33.656Z,15.02
2018-06-25T22:42:04.124Z,14.99
2018-06-25T22:44:34.536Z,14.97
2018-06-25T22:47:06.832Z,14.94
2018-06-25T22:49:38.416Z,14.93
2018-06-25T22:52:08.472Z,14.91
2018-06-25T22:54:41.561Z,14.92
2018-06-25T22:57:10.866Z,14.93
2018-06-25T22:59:41.121Z,14.94
2018-06-25T23:02:10.851Z,14.96
2018-06-25T23:04:42.481Z,14.97
2018-06-25T23:07:13.443Z,14.97
2018-06-25T23:09:43.740Z,14.96
2018-06-25T23:12:13.664Z,14.92
2018-06-25T23:14:44.489Z,14.89
2018-06-25T23:17:16.064Z,14.87
2018-06-25T23:19:45.251Z,14.85
2018-06-25T23:22:16.034Z,14.82
2018-06-25T23:24:45.697Z,14.81
2018-06-25T23:27:15.452Z,14.82
2018-06-25T23:29:46.381Z,14.77
2018-06-25T23:32:17.857Z,14.72
2018-06-25T23:34:48.942Z,14.72
2018-06-25T23:37:18.537Z,14.69
2018-06-25T23:39:50.909Z,14.68
2018-06-25T23:42:20.106Z,14.66
2018-06-25T23:44:51.932Z,14.63
2018-06-25T23:47:23.047Z,14.61
2018-06-25T23:49:54.916Z,14.58
2018-06-25T23:52:24.747Z,14.54
2018-06-25T23:54:56.417Z,14.49
2018-06-25T23:57:28.320Z,14.42
2018-06-25T23:59:58.394Z,14.38
